Time;durP1;ratioP1;P1;durP2;ratioP2;P2;SDS_P1;SDS_P2;PMS_P1;PMS_P2;Temp;Humidity;BMP_temperature;BMP_pressure;BME280_temperature;BME280_humidity;BME280_pressure;Samples;Min_cycle;Max_cycle;Signal;HPM_P1;HPM_P2
2021/08/08 00:01:05;;;;;;;;;;;24.40;52.90;;;;;;1500160;78;772;-67
2021/08/08 00:03:07;;;;;;;;;;;24.40;52.90;;;;;;1496019;78;774;-68
2021/08/08 00:05:09;;;;;;;;;;;24.50;53.00;;;;;;1498689;77;769;-66
2021/08/08 00:07:11;;;;;;;;;;;24.50;53.00;;;;;;1499826;77;1175;-67
2021/08/08 00:09:13;;;;;;;;;;;24.40;53.00;;;;;;1500150;78;799;-67
2021/08/08 00:11:15;;;;;;;;;;;24.40;53.00;;;;;;1506179;78;1943;-67
2021/08/08 00:13:17;;;;;;;;;;;24.50;53.00;;;;;;1498808;78;730;-66
2021/08/08 00:15:18;;;;;;;;;;;24.40;52.90;;;;;;1499388;78;815;-66
2021/08/08 00:17:20;;;;;;;;;;;24.40;53.00;;;;;;1499475;78;1341;-66
2021/08/08 00:19:22;;;;;;;;;;;24.50;53.10;;;;;;1496175;78;764;-67
2021/08/08 00:21:24;;;;;;;;;;;24.40;53.00;;;;;;1504479;78;887;-66
2021/08/08 00:23:26;;;;;;;;;;;24.40;53.00;;;;;;1494627;78;701;-64
2021/08/08 00:25:28;;;;;;;;;;;24.40;52.90;;;;;;1496573;78;812;-67
2021/08/08 00:27:30;;;;;;;;;;;24.50;53.00;;;;;;1501166;77;1140;-66
2021/08/08 00:29:32;;;;;;;;;;;24.50;53.00;;;;;;1502375;78;787;-67
2021/08/08 00:31:34;;;;;;;;;;;24.40;52.90;;;;;;1488805;78;1928;-67
2021/08/08 00:33:36;;;;;;;;;;;24.50;53.00;;;;;;1498432;78;744;-66
2021/08/08 00:35:42;;;;;;;;;;;24.50;52.90;;;;;;1514978;78;800;-66
2021/08/08 00:37:44;;;;;;;;;;;24.50;53.00;;;;;;1492191;78;1564;-65
2021/08/08 00:39:46;;;;;;;;;;;24.40;52.80;;;;;;1507172;78;950;-66
2021/08/08 00:41:48;;;;;;;;;;;24.50;52.90;;;;;;1505284;78;719;-65
2021/08/08 00:43:50;;;;;;;;;;;24.50;52.90;;;;;;1496401;78;973;-66
2021/08/08 00:45:52;;;;;;;;;;;24.40;52.80;;;;;;1498750;78;769;-66
2021/08/08 00:47:54;;;;;;;;;;;24.50;52.90;;;;;;1496847;78;1154;-66
2021/08/08 00:49:55;;;;;;;;;;;24.50;52.90;;;;;;1504259;78;767;-66
2021/08/08 00:51:57;;;;;;;;;;;24.50;52.90;;;;;;1500855;78;1953;-67
2021/08/08 00:54:00;;;;;;;;;;;24.50;53.00;;;;;;1507842;78;667;-67
2021/08/08 00:56:02;;;;;;;;;;;24.50;52.90;;;;;;1506411;78;755;-66
2021/08/08 00:58:04;;;;;;;;;;;24.50;52.90;;;;;;1502653;77;1142;-67
2021/08/08 01:00:06;;;;;;;;;;;24.50;52.90;;;;;;1504025;78;675;-66
2021/08/08 01:02:08;;;;;;;;;;;24.40;52.90;;;;;;1502198;78;729;-66
2021/08/08 01:04:11;;;;;;;;;;;24.50;53.00;;;;;;1497631;77;659;-66
2021/08/08 01:06:17;;;;;;;;;;;24.50;53.00;;;;;;1510618;78;656;-66
2021/08/08 01:08:20;;;;;;;;;;;24.50;53.00;;;;;;1505710;78;1138;-66
2021/08/08 01:10:22;;;;;;;;;;;24.40;52.90;;;;;;1510118;78;802;-66
2021/08/08 01:12:24;;;;;;;;;;;24.40;52.90;;;;;;1512401;78;1932;-66
2021/08/08 01:14:25;;;;;;;;;;;24.40;53.00;;;;;;1509045;78;772;-65
2021/08/08 01:16:27;;;;;;;;;;;24.50;53.10;;;;;;1505119;78;812;-66
2021/08/08 01:18:29;;;;;;;;;;;24.50;53.00;;;;;;1494520;77;1123;-67
2021/08/08 01:20:31;;;;;;;;;;;24.50;53.00;;;;;;1506934;78;792;-66
2021/08/08 01:22:33;;;;;;;;;;;24.50;53.00;;;;;;1474956;79;809;-65
2021/08/08 01:24:35;;;;;;;;;;;24.50;53.00;;;;;;1530269;76;810;-65
2021/08/08 01:26:37;;;;;;;;;;;24.40;52.90;;;;;;1544354;76;795;-65
2021/08/08 01:28:39;;;;;;;;;;;24.50;53.00;;;;;;1530731;76;1126;-66
2021/08/08 01:30:40;;;;;;;;;;;24.50;53.00;;;;;;1543059;76;728;-68
2021/08/08 01:32:43;;;;;;;;;;;24.50;53.00;;;;;;1533137;76;1919;-67
2021/08/08 01:34:46;;;;;;;;;;;24.50;53.00;;;;;;1539727;76;654;-67
2021/08/08 01:36:48;;;;;;;;;;;24.40;52.90;;;;;;1542856;76;1155;-70
2021/08/08 01:38:55;;;;;;;;;;;24.50;53.00;;;;;;1551852;76;693;-69
2021/08/08 01:41:02;;;;;;;;;;;24.40;52.90;;;;;;1544561;76;1798;-68
2021/08/08 01:43:05;;;;;;;;;;;24.50;52.90;;;;;;1544213;76;764;-66
2021/08/08 01:45:08;;;;;;;;;;;24.50;52.90;;;;;;1551849;76;688;-67
2021/08/08 01:47:10;;;;;;;;;;;24.50;53.00;;;;;;1536095;76;1136;-66
2021/08/08 01:49:12;;;;;;;;;;;24.50;52.90;;;;;;1530719;76;671;-65
2021/08/08 01:51:14;;;;;;;;;;;24.50;53.00;;;;;;1550548;76;731;-66
2021/08/08 01:53:16;;;;;;;;;;;24.40;52.70;;;;;;1535097;76;1952;-66
2021/08/08 01:55:18;;;;;;;;;;;24.50;52.90;;;;;;1522620;76;727;-67
2021/08/08 01:57:20;;;;;;;;;;;24.50;52.70;;;;;;1525355;76;1165;-66
2021/08/08 01:59:22;;;;;;;;;;;24.50;52.60;;;;;;1523212;76;793;-65
2021/08/08 02:01:29;;;;;;;;;;;24.50;52.50;;;;;;1523260;76;686;-66
2021/08/08 02:03:38;;;;;;;;;;;24.50;52.60;;;;;;1534309;76;677;-66
2021/08/08 02:05:40;;;;;;;;;;;24.50;52.60;;;;;;1526008;76;829;-66
2021/08/08 02:07:42;;;;;;;;;;;24.40;52.60;;;;;;1520559;76;1201;-67
2021/08/08 02:09:44;;;;;;;;;;;24.50;52.80;;;;;;1527525;76;669;-66
2021/08/08 02:11:46;;;;;;;;;;;24.40;52.70;;;;;;1528459;76;1951;-65
2021/08/08 02:13:48;;;;;;;;;;;24.50;52.80;;;;;;1524693;76;781;-64
2021/08/08 02:15:50;;;;;;;;;;;24.50;52.80;;;;;;1528815;76;781;-65
2021/08/08 02:17:51;;;;;;;;;;;24.50;52.80;;;;;;1525190;76;1115;-67
2021/08/08 02:19:53;;;;;;;;;;;24.50;52.80;;;;;;1528400;76;792;-65
2021/08/08 02:21:55;;;;;;;;;;;24.40;52.70;;;;;;1528275;76;748;-66
2021/08/08 02:23:57;;;;;;;;;;;24.40;52.70;;;;;;1526507;76;794;-66
2021/08/08 02:25:59;;;;;;;;;;;24.50;52.80;;;;;;1526625;76;677;-65
2021/08/08 02:28:01;;;;;;;;;;;24.50;52.70;;;;;;1528559;76;1147;-66
2021/08/08 02:30:04;;;;;;;;;;;24.40;52.60;;;;;;1527536;76;754;-68
2021/08/08 02:32:06;;;;;;;;;;;24.40;52.60;;;;;;1538322;76;1931;-66
2021/08/08 02:34:08;;;;;;;;;;;24.40;52.60;;;;;;1531702;76;704;-67
2021/08/08 02:36:10;;;;;;;;;;;24.40;52.50;;;;;;1534689;76;988;-67
2021/08/08 02:38:12;;;;;;;;;;;24.40;52.50;;;;;;1527193;76;1122;-68
2021/08/08 02:40:14;;;;;;;;;;;24.40;52.50;;;;;;1535449;76;1065;-67
2021/08/08 02:42:15;;;;;;;;;;;24.50;52.60;;;;;;1529666;76;794;-65
2021/08/08 02:44:17;;;;;;;;;;;24.40;52.50;;;;;;1532802;76;795;-67
2021/08/08 02:46:19;;;;;;;;;;;24.40;52.50;;;;;;1538805;76;777;-67
2021/08/08 02:48:21;;;;;;;;;;;24.40;52.50;;;;;;1539133;76;1213;-67
2021/08/08 02:50:23;;;;;;;;;;;24.40;52.50;;;;;;1538841;76;687;-67
2021/08/08 02:52:25;;;;;;;;;;;24.40;52.60;;;;;;1533917;76;1930;-67
2021/08/08 02:54:27;;;;;;;;;;;24.40;52.60;;;;;;1557057;76;792;-67
2021/08/08 02:56:29;;;;;;;;;;;24.40;52.60;;;;;;1530294;76;701;-68
2021/08/08 02:58:31;;;;;;;;;;;24.40;52.60;;;;;;1553372;73;2188;-70
2021/08/08 03:00:33;;;;;;;;;;;24.50;52.70;;;;;;1577704;74;741;-71
2021/08/08 03:02:35;;;;;;;;;;;24.40;52.60;;;;;;1567069;74;796;-71
2021/08/08 03:04:36;;;;;;;;;;;24.40;52.60;;;;;;1571507;74;720;-71
2021/08/08 03:06:40;;;;;;;;;;;24.40;52.70;;;;;;1566508;74;712;-71
2021/08/08 03:08:44;;;;;;;;;;;24.40;52.70;;;;;;1590235;74;1181;-71
2021/08/08 03:10:45;;;;;;;;;;;24.40;52.70;;;;;;1593952;73;1461;-73
2021/08/08 03:12:47;;;;;;;;;;;24.40;52.60;;;;;;1580560;73;1942;-72
2021/08/08 03:14:49;;;;;;;;;;;24.40;52.70;;;;;;1597485;73;717;-72
2021/08/08 03:16:51;;;;;;;;;;;24.50;52.70;;;;;;1581154;73;750;-72
2021/08/08 03:18:53;;;;;;;;;;;24.50;52.70;;;;;;1593465;73;1093;-71
2021/08/08 03:20:55;;;;;;;;;;;24.40;52.60;;;;;;1594138;73;772;-68
2021/08/08 03:22:57;;;;;;;;;;;24.40;52.70;;;;;;1588212;73;719;-71
2021/08/08 03:24:58;;;;;;;;;;;24.50;52.80;;;;;;1593637;74;662;-71
2021/08/08 03:27:00;;;;;;;;;;;24.50;52.80;;;;;;1598827;73;734;-71
2021/08/08 03:29:02;;;;;;;;;;;24.40;52.60;;;;;;1596940;73;1086;-70
2021/08/08 03:31:04;;;;;;;;;;;24.50;52.70;;;;;;1591155;74;699;-69
2021/08/08 03:33:06;;;;;;;;;;;24.50;52.70;;;;;;1597559;74;1948;-68
2021/08/08 03:35:08;;;;;;;;;;;24.50;52.70;;;;;;1590263;73;707;-70
2021/08/08 03:37:10;;;;;;;;;;;24.50;52.60;;;;;;1594688;74;1135;-71
2021/08/08 03:39:12;;;;;;;;;;;24.50;52.60;;;;;;1592832;73;716;-71
2021/08/08 03:41:14;;;;;;;;;;;24.40;52.50;;;;;;1593407;73;593;-70
2021/08/08 03:43:16;;;;;;;;;;;24.50;52.60;;;;;;1582200;73;746;-69
2021/08/08 03:45:17;;;;;;;;;;;24.50;52.60;;;;;;1580569;74;690;-69
2021/08/08 03:47:20;;;;;;;;;;;24.50;52.60;;;;;;1590130;73;1146;-68
2021/08/08 03:49:22;;;;;;;;;;;24.40;52.50;;;;;;1588391;73;780;-69
2021/08/08 03:51:23;;;;;;;;;;;24.40;52.50;;;;;;1591143;74;778;-68
2021/08/08 03:53:25;;;;;;;;;;;24.50;52.60;;;;;;1599948;73;1912;-69
2021/08/08 03:55:27;;;;;;;;;;;24.50;52.60;;;;;;1589031;73;982;-69
2021/08/08 03:57:29;;;;;;;;;;;24.40;52.50;;;;;;1589890;74;1142;-69
2021/08/08 03:59:31;;;;;;;;;;;24.40;52.50;;;;;;1589792;73;775;-69
2021/08/08 04:01:33;;;;;;;;;;;24.50;52.50;;;;;;1599361;74;639;-68
2021/08/08 04:03:35;;;;;;;;;;;24.50;52.60;;;;;;1598480;73;618;-71
2021/08/08 04:05:37;;;;;;;;;;;24.50;52.60;;;;;;1593573;73;726;-69
2021/08/08 04:07:39;;;;;;;;;;;24.50;52.60;;;;;;1587931;74;1201;-70
2021/08/08 04:09:41;;;;;;;;;;;24.50;52.50;;;;;;1599849;73;724;-69
2021/08/08 04:11:43;;;;;;;;;;;24.50;52.50;;;;;;1585713;73;770;-68
2021/08/08 04:13:45;;;;;;;;;;;24.50;52.50;;;;;;1592527;74;1948;-70
2021/08/08 04:15:47;;;;;;;;;;;24.40;52.40;;;;;;1583159;73;764;-70
2021/08/08 04:17:49;;;;;;;;;;;24.40;52.40;;;;;;1595228;73;1144;-68
2021/08/08 04:19:51;;;;;;;;;;;24.50;52.50;;;;;;1595370;73;606;-68
2021/08/08 04:21:52;;;;;;;;;;;24.50;52.40;;;;;;1596698;73;759;-68
2021/08/08 04:23:54;;;;;;;;;;;24.40;52.30;;;;;;1592536;73;676;-69
2021/08/08 04:25:56;;;;;;;;;;;24.40;52.30;;;;;;1581033;73;710;-70
2021/08/08 04:27:58;;;;;;;;;;;24.40;52.40;;;;;;1590773;74;1131;-69
2021/08/08 04:30:00;;;;;;;;;;;24.40;52.30;;;;;;1591045;73;793;-67
2021/08/08 04:32:02;;;;;;;;;;;24.50;52.40;;;;;;1586355;73;733;-68
2021/08/08 04:34:04;;;;;;;;;;;24.40;52.40;;;;;;1589528;73;1933;-67
2021/08/08 04:36:06;;;;;;;;;;;24.40;52.40;;;;;;1586217;74;704;-68
2021/08/08 04:38:08;;;;;;;;;;;24.40;52.30;;;;;;1581973;73;1108;-69
2021/08/08 04:40:10;;;;;;;;;;;24.50;52.40;;;;;;1592694;73;679;-71
2021/08/08 04:42:12;;;;;;;;;;;24.40;52.30;;;;;;1590787;74;765;-70
2021/08/08 04:44:14;;;;;;;;;;;24.40;52.30;;;;;;1581494;74;675;-67
2021/08/08 04:46:16;;;;;;;;;;;24.40;52.30;;;;;;1591697;74;758;-68
2021/08/08 04:48:17;;;;;;;;;;;24.40;52.30;;;;;;1586796;73;1133;-69
2021/08/08 04:50:20;;;;;;;;;;;24.40;52.30;;;;;;1588478;74;615;-68
2021/08/08 04:52:21;;;;;;;;;;;24.40;52.30;;;;;;1583990;74;738;-69
2021/08/08 04:54:23;;;;;;;;;;;24.40;52.30;;;;;;1584417;74;1930;-69
2021/08/08 04:56:25;;;;;;;;;;;24.40;52.30;;;;;;1593293;73;688;-69
2021/08/08 04:58:27;;;;;;;;;;;24.40;52.30;;;;;;1594132;74;1165;-69
2021/08/08 05:00:29;;;;;;;;;;;24.40;52.30;;;;;;1589867;74;721;-68
2021/08/08 05:02:31;;;;;;;;;;;24.40;52.30;;;;;;1596862;73;694;-67
2021/08/08 05:04:34;;;;;;;;;;;24.40;52.30;;;;;;1591045;74;732;-68
2021/08/08 05:06:36;;;;;;;;;;;24.40;52.30;;;;;;1592141;73;725;-65
2021/08/08 05:08:38;;;;;;;;;;;24.40;52.30;;;;;;1587245;74;1121;-68
2021/08/08 05:10:39;;;;;;;;;;;24.40;52.30;;;;;;1596156;73;712;-68
2021/08/08 05:12:41;;;;;;;;;;;24.40;52.30;;;;;;1585388;74;773;-68
2021/08/08 05:14:43;;;;;;;;;;;24.40;52.30;;;;;;1594457;73;1945;-69
2021/08/08 05:16:45;;;;;;;;;;;24.40;52.30;;;;;;1589569;74;684;-70
2021/08/08 05:18:47;;;;;;;;;;;24.40;52.30;;;;;;1592919;74;1119;-68
2021/08/08 05:20:49;;;;;;;;;;;24.40;52.30;;;;;;1594851;73;762;-69
2021/08/08 05:22:51;;;;;;;;;;;24.40;52.40;;;;;;1591376;73;1093;-71
2021/08/08 05:24:53;;;;;;;;;;;24.40;52.50;;;;;;1584832;73;742;-69
2021/08/08 05:26:56;;;;;;;;;;;24.40;52.50;;;;;;1585920;73;714;-71
2021/08/08 05:28:58;;;;;;;;;;;24.40;52.40;;;;;;1592772;73;1117;-71
2021/08/08 05:31:00;;;;;;;;;;;24.40;52.40;;;;;;1590490;73;787;-72
2021/08/08 05:33:02;;;;;;;;;;;24.40;52.40;;;;;;1594590;74;1941;-70
2021/08/08 05:35:04;;;;;;;;;;;24.40;52.30;;;;;;1589007;73;711;-69
2021/08/08 05:37:06;;;;;;;;;;;24.40;52.30;;;;;;1592324;74;1159;-67
2021/08/08 05:39:08;;;;;;;;;;;24.40;52.30;;;;;;1602837;74;681;-69
2021/08/08 05:41:12;;;;;;;;;;;24.50;52.60;;;;;;1589183;74;693;-71
2021/08/08 05:43:13;;;;;;;;;;;24.50;52.60;;;;;;1589704;73;743;-73
2021/08/08 05:45:15;;;;;;;;;;;24.50;52.60;;;;;;1583578;74;718;-71
2021/08/08 05:47:17;;;;;;;;;;;24.50;52.60;;;;;;1590737;73;1151;-71
2021/08/08 05:49:19;;;;;;;;;;;24.50;52.60;;;;;;1583492;73;784;-71
2021/08/08 05:51:21;;;;;;;;;;;24.50;52.50;;;;;;1598030;74;718;-72
2021/08/08 05:53:23;;;;;;;;;;;24.50;52.60;;;;;;1587538;74;1922;-72
2021/08/08 05:55:25;;;;;;;;;;;24.50;52.50;;;;;;1591694;74;723;-70
2021/08/08 05:57:27;;;;;;;;;;;24.50;52.60;;;;;;1594721;73;1122;-71
2021/08/08 05:59:28;;;;;;;;;;;24.40;52.60;;;;;;1591217;73;801;-69
2021/08/08 06:01:30;;;;;;;;;;;24.60;52.70;;;;;;1589817;74;693;-70
2021/08/08 06:03:32;;;;;;;;;;;24.50;52.60;;;;;;1585615;73;690;-71
2021/08/08 06:05:34;;;;;;;;;;;24.60;52.60;;;;;;1593862;73;877;-70
2021/08/08 06:07:36;;;;;;;;;;;24.60;52.50;;;;;;1598284;73;1161;-70
2021/08/08 06:09:38;;;;;;;;;;;24.60;52.60;;;;;;1586749;73;749;-69
2021/08/08 06:11:40;;;;;;;;;;;24.60;52.70;;;;;;1583746;73;714;-72
2021/08/08 06:13:42;;;;;;;;;;;24.60;52.70;;;;;;1590846;73;1940;-70
2021/08/08 06:15:44;;;;;;;;;;;24.50;52.70;;;;;;1584001;73;685;-70
2021/08/08 06:17:46;;;;;;;;;;;24.60;52.80;;;;;;1585211;73;1281;-70
2021/08/08 06:19:47;;;;;;;;;;;24.60;52.80;;;;;;1590225;73;702;-70
2021/08/08 06:21:49;;;;;;;;;;;24.60;52.80;;;;;;1583258;73;737;-70
2021/08/08 06:23:51;;;;;;;;;;;24.60;52.80;;;;;;1595686;73;715;-72
2021/08/08 06:25:53;;;;;;;;;;;24.60;53.10;;;;;;1585017;73;771;-67
2021/08/08 06:27:55;;;;;;;;;;;24.60;53.40;;;;;;1582254;73;1274;-69
2021/08/08 06:29:57;;;;;;;;;;;24.60;53.30;;;;;;1585828;73;781;-74
2021/08/08 06:31:59;;;;;;;;;;;24.60;53.10;;;;;;1578975;73;706;-72
2021/08/08 06:34:01;;;;;;;;;;;24.70;53.20;;;;;;1581466;73;1942;-73
2021/08/08 06:36:02;;;;;;;;;;;24.80;52.80;;;;;;1576990;73;675;-73
2021/08/08 06:38:04;;;;;;;;;;;24.80;52.40;;;;;;1583276;73;1228;-74
2021/08/08 06:40:07;;;;;;;;;;;24.60;52.10;;;;;;1586722;73;737;-73
2021/08/08 06:42:09;;;;;;;;;;;24.70;52.00;;;;;;1584629;73;743;-74
2021/08/08 06:44:11;;;;;;;;;;;24.60;51.80;;;;;;1584654;73;739;-74
2021/08/08 06:46:12;;;;;;;;;;;24.60;51.70;;;;;;1584138;73;619;-73
2021/08/08 06:48:14;;;;;;;;;;;24.70;51.80;;;;;;1580093;73;1143;-72
2021/08/08 06:50:16;;;;;;;;;;;24.70;51.60;;;;;;1578400;73;842;-73
2021/08/08 06:52:18;;;;;;;;;;;24.60;51.50;;;;;;1584186;73;838;-74
2021/08/08 06:54:20;;;;;;;;;;;24.70;51.50;;;;;;1586185;73;1933;-73
2021/08/08 06:56:22;;;;;;;;;;;24.70;51.40;;;;;;1595145;73;659;-71
2021/08/08 06:58:24;;;;;;;;;;;24.60;51.30;;;;;;1593585;73;1157;-72
2021/08/08 07:00:26;;;;;;;;;;;24.70;51.30;;;;;;1589967;73;790;-72
2021/08/08 07:02:27;;;;;;;;;;;24.60;50.80;;;;;;1593354;73;1080;-72
2021/08/08 07:04:29;;;;;;;;;;;24.60;50.70;;;;;;1589787;73;758;-71
2021/08/08 07:06:31;;;;;;;;;;;24.60;50.70;;;;;;1595435;73;710;-72
2021/08/08 07:08:33;;;;;;;;;;;24.50;50.70;;;;;;1583349;74;1145;-72
2021/08/08 07:10:35;;;;;;;;;;;24.50;50.80;;;;;;1599112;73;717;-72
2021/08/08 07:12:37;;;;;;;;;;;24.50;50.80;;;;;;1586818;73;681;-72
2021/08/08 07:14:39;;;;;;;;;;;24.50;50.90;;;;;;1585053;73;1950;-71
2021/08/08 07:16:41;;;;;;;;;;;24.50;50.80;;;;;;1584637;73;719;-71
2021/08/08 07:18:43;;;;;;;;;;;24.50;50.90;;;;;;1586424;73;1176;-72
2021/08/08 07:20:45;;;;;;;;;;;24.40;50.80;;;;;;1582591;74;723;-70
2021/08/08 07:22:47;;;;;;;;;;;24.50;50.90;;;;;;1582885;73;807;-70
2021/08/08 07:24:52;;;;;;;;;;;24.40;50.80;;;;;;1590310;74;735;-70
2021/08/08 07:26:54;;;;;;;;;;;24.30;50.90;;;;;;1588185;73;869;-71
2021/08/08 07:28:56;;;;;;;;;;;24.40;50.90;;;;;;1586585;74;1090;-71
2021/08/08 07:30:58;;;;;;;;;;;24.30;51.00;;;;;;1595443;73;675;-70
2021/08/08 07:33:00;;;;;;;;;;;24.30;51.00;;;;;;1587528;73;715;-72
2021/08/08 07:35:03;;;;;;;;;;;24.30;51.10;;;;;;1594995;73;1934;-70
2021/08/08 07:37:04;;;;;;;;;;;24.40;51.20;;;;;;1589319;73;1123;-70
2021/08/08 07:39:07;;;;;;;;;;;24.30;51.20;;;;;;1583433;73;708;-71
2021/08/08 07:41:11;;;;;;;;;;;24.30;51.30;;;;;;1599970;73;730;-70
2021/08/08 07:43:13;;;;;;;;;;;24.30;51.30;;;;;;1592016;73;703;-70
2021/08/08 07:45:15;;;;;;;;;;;24.30;51.40;;;;;;1591384;73;791;-70
2021/08/08 07:47:17;;;;;;;;;;;24.20;51.30;;;;;;1596322;73;1144;-71
2021/08/08 07:49:18;;;;;;;;;;;24.30;51.50;;;;;;1596758;73;760;-70
2021/08/08 07:51:20;;;;;;;;;;;24.30;51.50;;;;;;1595940;73;716;-71
2021/08/08 07:53:22;;;;;;;;;;;24.30;51.50;;;;;;1590262;73;661;-72
2021/08/08 07:55:25;;;;;;;;;;;24.20;51.50;;;;;;1591059;74;1932;-71
2021/08/08 07:57:27;;;;;;;;;;;24.20;51.50;;;;;;1594929;73;1142;-71
2021/08/08 07:59:28;;;;;;;;;;;24.20;51.50;;;;;;1585476;74;753;-70
2021/08/08 08:01:32;;;;;;;;;;;24.20;51.50;;;;;;1597464;73;798;-70
2021/08/08 08:03:34;;;;;;;;;;;24.20;51.60;;;;;;1596158;73;688;-69
2021/08/08 08:05:35;;;;;;;;;;;24.20;51.60;;;;;;1593421;73;764;-70
2021/08/08 08:07:37;;;;;;;;;;;24.20;51.80;;;;;;1594220;73;1175;-69
2021/08/08 08:09:39;;;;;;;;;;;24.20;51.80;;;;;;1604207;73;723;-69
2021/08/08 08:11:41;;;;;;;;;;;24.20;51.80;;;;;;1601762;73;724;-66
2021/08/08 08:13:43;;;;;;;;;;;24.20;51.80;;;;;;1591976;73;746;-69
2021/08/08 08:15:45;;;;;;;;;;;24.20;51.80;;;;;;1588403;74;1919;-70
2021/08/08 08:17:50;;;;;;;;;;;24.20;51.80;;;;;;1590397;73;1185;-70
2021/08/08 08:19:51;;;;;;;;;;;24.20;51.90;;;;;;1593617;73;1609;-71
2021/08/08 08:21:53;;;;;;;;;;;24.20;51.90;;;;;;1592683;73;715;-70
2021/08/08 08:23:55;;;;;;;;;;;24.20;51.90;;;;;;1586720;73;651;-71
2021/08/08 08:25:57;;;;;;;;;;;24.20;52.00;;;;;;1582066;73;805;-71
2021/08/08 08:27:58;;;;;;;;;;;24.10;52.00;;;;;;1583774;73;1157;-71
2021/08/08 08:30:00;;;;;;;;;;;24.20;52.00;;;;;;1582507;73;735;-70
2021/08/08 08:32:02;;;;;;;;;;;24.10;52.00;;;;;;1587013;73;738;-71
2021/08/08 08:34:04;;;;;;;;;;;24.10;52.00;;;;;;1591383;73;755;-70
2021/08/08 08:36:06;;;;;;;;;;;24.10;52.10;;;;;;1596776;73;776;-71
2021/08/08 08:38:08;;;;;;;;;;;24.10;52.10;;;;;;1591294;73;1137;-69
2021/08/08 08:40:10;;;;;;;;;;;24.10;52.10;;;;;;1595333;73;708;-70
2021/08/08 08:42:12;;;;;;;;;;;24.10;52.20;;;;;;1585642;73;1021;-71
2021/08/08 08:44:15;;;;;;;;;;;24.10;52.20;;;;;;1603041;73;859;-71
2021/08/08 08:46:17;;;;;;;;;;;24.10;52.10;;;;;;1583328;73;741;-70
2021/08/08 08:48:19;;;;;;;;;;;24.10;52.10;;;;;;1596297;74;1136;-70
2021/08/08 08:50:22;;;;;;;;;;;24.10;52.20;;;;;;1589535;73;711;-71
2021/08/08 08:52:26;;;;;;;;;;;24.10;52.20;;;;;;1601271;73;704;-73
2021/08/08 08:54:29;;;;;;;;;;;24.10;52.20;;;;;;1593508;73;1928;-70
2021/08/08 08:56:30;;;;;;;;;;;24.10;52.20;;;;;;1582914;73;719;-72
2021/08/08 08:58:32;;;;;;;;;;;24.10;52.20;;;;;;1597463;73;3001;-69
2021/08/08 09:00:34;;;;;;;;;;;24.10;52.20;;;;;;1579609;74;704;-69
2021/08/08 09:02:37;;;;;;;;;;;24.00;51.80;;;;;;1584662;74;774;-69
2021/08/08 09:04:39;;;;;;;;;;;24.00;51.70;;;;;;1579625;74;810;-69
2021/08/08 09:06:41;;;;;;;;;;;24.00;51.60;;;;;;1579437;74;800;-69
2021/08/08 09:08:43;;;;;;;;;;;24.10;51.80;;;;;;1575081;74;1192;-70
2021/08/08 09:10:45;;;;;;;;;;;24.00;51.60;;;;;;1583385;74;745;-67
2021/08/08 09:12:58;;;;;;;;;;;24.10;51.70;;;;;;1583649;74;774;-68
2021/08/08 09:15:01;;;;;;;;;;;24.00;51.30;;;;;;1572935;74;1918;-66
2021/08/08 09:17:03;;;;;;;;;;;24.10;51.10;;;;;;1568882;74;726;-66
2021/08/08 09:19:05;;;;;;;;;;;24.00;51.00;;;;;;1569701;74;1136;-67
2021/08/08 09:21:11;;;;;;;;;;;24.00;51.00;;;;;;1579860;74;728;-65
2021/08/08 09:23:13;;;;;;;;;;;24.00;50.80;;;;;;1578487;74;781;-66
2021/08/08 09:25:22;;;;;;;;;;;24.00;50.60;;;;;;1574328;74;731;-67
2021/08/08 09:27:34;;;;;;;;;;;24.00;50.50;;;;;;1575301;74;1564;-67
2021/08/08 09:29:37;;;;;;;;;;;24.00;50.30;;;;;;1586879;74;1940;-67
2021/08/08 09:31:46;;;;;;;;;;;24.00;50.20;;;;;;1585533;74;755;-67
2021/08/08 09:33:48;;;;;;;;;;;24.00;50.10;;;;;;1579046;74;691;-69
2021/08/08 09:35:53;;;;;;;;;;;24.00;50.10;;;;;;1585857;74;1932;-64
2021/08/08 09:37:59;;;;;;;;;;;24.00;50.00;;;;;;1576355;74;1128;-69
2021/08/08 09:40:01;;;;;;;;;;;23.90;50.10;;;;;;1580131;74;923;-68
2021/08/08 09:42:07;;;;;;;;;;;24.00;50.00;;;;;;1585481;74;712;-68
2021/08/08 09:44:09;;;;;;;;;;;23.90;50.00;;;;;;1583357;74;778;-67
2021/08/08 09:46:13;;;;;;;;;;;23.90;50.20;;;;;;1574117;74;653;-68
2021/08/08 09:48:15;;;;;;;;;;;24.00;50.20;;;;;;1571001;74;1884;-66
2021/08/08 09:50:17;;;;;;;;;;;24.00;50.10;;;;;;1581130;74;764;-68
2021/08/08 09:52:22;;;;;;;;;;;24.00;50.10;;;;;;1584832;74;839;-68
2021/08/08 09:54:24;;;;;;;;;;;24.00;49.80;;;;;;1579486;74;767;-68
2021/08/08 09:56:26;;;;;;;;;;;24.00;49.70;;;;;;1575497;74;1927;-68
2021/08/08 09:58:29;;;;;;;;;;;23.90;49.60;;;;;;1578596;74;1154;-69
2021/08/08 10:00:33;;;;;;;;;;;23.90;49.70;;;;;;1578766;74;735;-68
2021/08/08 10:02:35;;;;;;;;;;;23.90;49.70;;;;;;1578559;74;1094;-69
2021/08/08 10:04:37;;;;;;;;;;;23.90;49.80;;;;;;1577917;74;773;-69
2021/08/08 10:06:39;;;;;;;;;;;23.90;49.80;;;;;;1588172;74;692;-68
2021/08/08 10:08:41;;;;;;;;;;;23.90;49.30;;;;;;1585761;73;1217;-67
2021/08/08 10:10:44;;;;;;;;;;;23.90;49.20;;;;;;1548161;75;1287;-68
2021/08/08 10:12:47;;;;;;;;;;;23.90;48.90;;;;;;1585489;74;696;-68
2021/08/08 10:14:50;;;;;;;;;;;23.80;49.10;;;;;;1583710;74;1933;-67
2021/08/08 10:16:52;;;;;;;;;;;23.80;48.90;;;;;;1591330;74;767;-69
2021/08/08 10:18:57;;;;;;;;;;;23.70;49.30;;;;;;1596034;73;1161;-67
2021/08/08 10:20:59;;;;;;;;;;;23.80;49.60;;;;;;1590776;74;724;-67
2021/08/08 10:23:01;;;;;;;;;;;23.80;49.50;;;;;;1584942;74;808;-67
2021/08/08 10:25:03;;;;;;;;;;;23.80;49.20;;;;;;1583861;73;701;-67
2021/08/08 10:27:05;;;;;;;;;;;23.80;49.00;;;;;;1577787;74;790;-67
2021/08/08 10:29:07;;;;;;;;;;;23.90;49.10;;;;;;1573862;74;1156;-67
2021/08/08 10:31:09;;;;;;;;;;;23.80;49.20;;;;;;1585736;74;998;-68
2021/08/08 10:33:11;;;;;;;;;;;23.80;49.40;;;;;;1588369;74;668;-71
2021/08/08 10:35:13;;;;;;;;;;;23.80;49.60;;;;;;1587390;74;1926;-72
2021/08/08 10:37:15;;;;;;;;;;;23.80;49.70;;;;;;1588087;74;807;-64
2021/08/08 10:39:17;;;;;;;;;;;23.80;49.80;;;;;;1576733;74;1087;-66
2021/08/08 10:41:19;;;;;;;;;;;23.80;49.90;;;;;;1595688;74;803;-67
2021/08/08 10:43:25;;;;;;;;;;;23.80;50.00;;;;;;1582523;74;800;-68
2021/08/08 10:45:27;;;;;;;;;;;23.80;50.00;;;;;;1571969;74;692;-68
2021/08/08 10:47:30;;;;;;;;;;;23.90;50.00;;;;;;1574756;74;1376;-69
2021/08/08 10:49:32;;;;;;;;;;;23.90;49.90;;;;;;1575369;74;840;-68
2021/08/08 10:51:34;;;;;;;;;;;23.90;49.90;;;;;;1575837;74;802;-68
2021/08/08 10:53:36;;;;;;;;;;;23.90;49.90;;;;;;1586580;74;728;-69
2021/08/08 10:55:39;;;;;;;;;;;24.00;49.90;;;;;;1585437;74;1937;-67
2021/08/08 10:57:42;;;;;;;;;;;23.80;49.60;;;;;;1589080;74;1146;-67
2021/08/08 10:59:45;;;;;;;;;;;23.90;49.70;;;;;;1587178;74;763;-67
2021/08/08 11:01:47;;;;;;;;;;;23.90;49.60;;;;;;1587962;74;738;-64
2021/08/08 11:03:50;;;;;;;;;;;23.90;49.60;;;;;;1583973;74;783;-67
2021/08/08 11:05:52;;;;;;;;;;;23.80;49.50;;;;;;1581974;74;833;-65
2021/08/08 11:07:55;;;;;;;;;;;23.90;49.70;;;;;;1578291;74;1210;-67
2021/08/08 11:09:56;;;;;;;;;;;23.90;49.70;;;;;;1595596;74;606;-67
2021/08/08 11:11:58;;;;;;;;;;;23.90;49.60;;;;;;1592782;74;717;-68
2021/08/08 11:14:05;;;;;;;;;;;23.90;48.70;;;;;;1590069;74;784;-68
2021/08/08 11:16:08;;;;;;;;;;;23.90;49.20;;;;;;1591587;74;1940;-67
2021/08/08 11:18:10;;;;;;;;;;;23.80;49.20;;;;;;1596377;74;1141;-67
2021/08/08 11:20:12;;;;;;;;;;;23.90;49.30;;;;;;1577492;74;899;-67
2021/08/08 11:22:15;;;;;;;;;;;23.90;48.90;;;;;;1576604;74;750;-67
2021/08/08 11:24:17;;;;;;;;;;;23.80;48.30;;;;;;1592364;74;827;-67
2021/08/08 11:26:19;;;;;;;;;;;23.80;48.50;;;;;;1584555;74;770;-67
2021/08/08 11:28:21;;;;;;;;;;;23.30;48.10;;;;;;1569172;74;1126;-67
2021/08/08 11:30:23;;;;;;;;;;;23.80;48.40;;;;;;1583421;74;705;-67
2021/08/08 11:32:31;;;;;;;;;;;23.90;48.50;;;;;;1583213;74;708;-68
2021/08/08 11:34:33;;;;;;;;;;;23.80;48.50;;;;;;1585130;74;690;-68
2021/08/08 11:36:35;;;;;;;;;;;23.90;48.60;;;;;;1602670;73;1897;-68
2021/08/08 11:38:37;;;;;;;;;;;23.80;48.40;;;;;;1596852;74;1157;-68
2021/08/08 11:40:41;;;;;;;;;;;23.90;48.60;;;;;;1590463;73;735;-69
2021/08/08 11:42:43;;;;;;;;;;;23.80;48.50;;;;;;1580294;74;703;-69
2021/08/08 11:44:45;;;;;;;;;;;23.80;48.50;;;;;;1581816;74;794;-68
2021/08/08 11:46:50;;;;;;;;;;;23.80;48.40;;;;;;1585577;74;797;-68
2021/08/08 11:48:52;;;;;;;;;;;23.80;48.40;;;;;;1578363;74;1133;-65
2021/08/08 11:50:58;;;;;;;;;;;23.70;48.00;;;;;;1583980;74;730;-69
2021/08/08 11:53:00;;;;;;;;;;;23.70;48.10;;;;;;1583839;74;697;-68
2021/08/08 11:55:03;;;;;;;;;;;23.80;48.10;;;;;;1584195;74;790;-68
2021/08/08 11:57:05;;;;;;;;;;;23.80;48.10;;;;;;1585469;74;1930;-69
2021/08/08 11:59:08;;;;;;;;;;;23.70;48.20;;;;;;1588721;74;1119;-69
2021/08/08 12:01:11;;;;;;;;;;;23.70;48.30;;;;;;1576930;73;778;-69
2021/08/08 12:03:13;;;;;;;;;;;23.70;48.20;;;;;;1587943;74;699;-69
2021/08/08 12:05:15;;;;;;;;;;;23.70;48.10;;;;;;1585978;74;807;-67
2021/08/08 12:07:17;;;;;;;;;;;23.70;48.30;;;;;;1572611;74;746;-68
2021/08/08 12:09:19;;;;;;;;;;;23.70;48.30;;;;;;1587662;74;1132;-68